createdAt,value
2022-10-22T00:01:28.387Z,6.60
2022-10-22T00:03:54.966Z,8.70
2022-10-22T00:06:21.393Z,8.27
2022-10-22T00:08:47.855Z,8.73
2022-10-22T00:11:15.103Z,9.17
2022-10-22T00:13:41.811Z,7.47
2022-10-22T00:16:08.707Z,10.23
2022-10-22T00:18:35.382Z,7.43
2022-10-22T00:21:02.481Z,7.30
2022-10-22T00:23:29.012Z,12.37
2022-10-22T00:25:55.499Z,8.20
2022-10-22T00:28:22.093Z,8.50
2022-10-22T00:30:48.530Z,8.10
2022-10-22T00:33:14.989Z,8.40
2022-10-22T00:35:41.588Z,8.13
2022-10-22T00:38:08.145Z,8.27
2022-10-22T00:40:35.023Z,8.03
2022-10-22T00:43:01.504Z,10.13
2022-10-22T00:45:28.117Z,6.40
2022-10-22T00:48:13.322Z,8.20
2022-10-22T00:50:53.113Z,7.57
2022-10-22T00:53:20.391Z,9.80
2022-10-22T00:55:47.815Z,9.70
2022-10-22T00:58:14.251Z,8.47
2022-10-22T01:00:40.772Z,11.17
2022-10-22T01:03:07.323Z,8.45
2022-10-22T01:05:38.880Z,10.50
2022-10-22T01:08:05.653Z,8.77
2022-10-22T01:10:32.294Z,9.57
2022-10-22T01:13:01.530Z,10.33
2022-10-22T01:15:46.478Z,7.10
2022-10-22T01:18:16.430Z,10.13
2022-10-22T01:21:04.411Z,6.13
2022-10-22T01:23:30.833Z,9.50
2022-10-22T01:26:06.499Z,6.17
2022-10-22T01:28:50.932Z,10.03
2022-10-22T01:31:17.366Z,10.03
2022-10-22T01:33:44.490Z,6.63
2022-10-22T01:36:11.261Z,6.37
2022-10-22T01:38:37.678Z,8.30
2022-10-22T01:41:04.252Z,6.83
2022-10-22T01:43:30.727Z,9.43
2022-10-22T01:45:58.323Z,7.97
2022-10-22T01:48:37.194Z,7.53
2022-10-22T01:51:03.809Z,8.47
2022-10-22T01:53:30.210Z,12.13
2022-10-22T01:56:08.807Z,9.77
2022-10-22T01:58:38.210Z,6.97
2022-10-22T02:01:27.991Z,7.03
2022-10-22T02:03:54.437Z,10.67
2022-10-22T02:06:21.253Z,8.97
2022-10-22T02:08:47.740Z,7.53
2022-10-22T02:11:14.264Z,9.77
2022-10-22T02:13:42.583Z,6.87
2022-10-22T02:16:09.853Z,9.77
2022-10-22T02:18:38.823Z,8.13
2022-10-22T02:21:06.037Z,9.63
2022-10-22T02:23:32.482Z,8.90
2022-10-22T02:26:00.637Z,8.90
2022-10-22T02:28:29.353Z,9.63
2022-10-22T02:30:57.115Z,9.97
2022-10-22T02:33:26.043Z,8.97
2022-10-22T02:35:52.586Z,11.07
2022-10-22T02:38:19.126Z,11.47
2022-10-22T02:40:45.559Z,10.30
2022-10-22T02:43:12.182Z,11.50
2022-10-22T02:45:38.682Z,10.60
2022-10-22T02:48:05.364Z,11.30
2022-10-22T02:50:31.904Z,11.07
2022-10-22T02:52:58.466Z,13.40
2022-10-22T02:55:24.928Z,12.37
2022-10-22T02:57:51.350Z,12.97
2022-10-22T03:00:17.888Z,12.07
2022-10-22T03:02:44.315Z,12.43
2022-10-22T03:05:10.814Z,11.40
2022-10-22T03:07:37.503Z,11.30
2022-10-22T03:10:04.422Z,13.67
2022-10-22T03:12:30.938Z,11.97
2022-10-22T03:14:57.375Z,12.13
2022-10-22T03:17:23.865Z,10.80
2022-10-22T03:19:50.326Z,10.83
2022-10-22T03:22:27.193Z,12.90
2022-10-22T03:24:54.670Z,8.10
2022-10-22T03:27:21.724Z,12.17
2022-10-22T03:29:48.250Z,9.30
2022-10-22T03:32:14.947Z,9.93
2022-10-22T03:34:41.430Z,11.93
2022-10-22T03:37:07.961Z,9.93
2022-10-22T03:39:34.669Z,7.50
2022-10-22T03:42:01.152Z,11.33
2022-10-22T03:44:27.675Z,10.63
2022-10-22T03:46:57.408Z,10.37
2022-10-22T03:49:26.700Z,8.63
2022-10-22T03:51:53.151Z,9.57
2022-10-22T03:54:19.656Z,7.77
2022-10-22T03:56:46.200Z,9.63
2022-10-22T03:59:13.270Z,9.00
2022-10-22T04:01:39.915Z,7.27
2022-10-22T04:04:06.362Z,10.93
2022-10-22T04:06:32.855Z,7.97
2022-10-22T04:08:59.386Z,12.07
2022-10-22T04:11:25.925Z,9.33
2022-10-22T04:13:52.441Z,9.37
2022-10-22T04:16:19.875Z,9.67
2022-10-22T04:18:46.996Z,7.93
2022-10-22T04:21:13.916Z,13.60
2022-10-22T04:23:44.312Z,9.10
2022-10-22T04:26:10.754Z,7.90
2022-10-22T04:28:37.196Z,9.77
2022-10-22T04:31:10.537Z,7.23
2022-10-22T04:33:37.054Z,7.73
2022-10-22T04:36:08.149Z,8.60
2022-10-22T04:38:34.644Z,9.37
2022-10-22T04:41:36.815Z,11.87
2022-10-22T04:44:03.404Z,8.10
2022-10-22T04:46:30.487Z,7.20
2022-10-22T04:48:57.003Z,7.63
2022-10-22T04:51:23.936Z,8.93
2022-10-22T04:53:50.327Z,9.50
2022-10-22T04:56:19.982Z,8.33
2022-10-22T04:58:47.023Z,10.53
2022-10-22T05:01:14.670Z,10.50
2022-10-22T05:03:41.381Z,8.33
2022-10-22T05:06:08.241Z,11.77
2022-10-22T05:08:34.809Z,14.03
2022-10-22T05:11:01.275Z,11.03
2022-10-22T05:13:27.778Z,11.50
2022-10-22T05:15:54.402Z,12.63
2022-10-22T05:18:22.576Z,12.40
2022-10-22T05:20:49.265Z,14.17
2022-10-22T05:23:15.709Z,14.17
2022-10-22T05:25:42.202Z,16.07
2022-10-22T05:28:08.638Z,12.30
2022-10-22T05:30:35.283Z,14.30
2022-10-22T05:33:01.854Z,17.97
2022-10-22T05:35:28.308Z,12.97
2022-10-22T05:37:54.774Z,11.50
2022-10-22T05:40:30.382Z,13.70
2022-10-22T05:42:58.454Z,13.23
2022-10-22T05:45:24.887Z,12.03
2022-10-22T05:47:51.366Z,13.50
2022-10-22T05:50:17.815Z,10.07
2022-10-22T05:52:44.541Z,11.70
2022-10-22T05:55:11.008Z,13.47
2022-10-22T05:57:37.509Z,12.17
2022-10-22T06:00:04.368Z,9.10
2022-10-22T06:02:30.912Z,9.80
2022-10-22T06:04:57.427Z,10.00
2022-10-22T06:07:24.114Z,10.33
2022-10-22T06:09:50.723Z,8.47
2022-10-22T06:12:17.648Z,11.43
2022-10-22T06:14:44.047Z,13.03
2022-10-22T06:17:11.028Z,15.07
2022-10-22T06:19:37.507Z,12.03
2022-10-22T06:22:04.304Z,11.30
2022-10-22T06:24:30.983Z,10.87
2022-10-22T06:26:57.396Z,10.60
2022-10-22T06:29:23.888Z,11.40
2022-10-22T06:31:50.301Z,15.27
2022-10-22T06:34:18.967Z,9.87
2022-10-22T06:36:45.803Z,10.10
2022-10-22T06:39:15.728Z,10.77
2022-10-22T06:41:42.251Z,8.70
2022-10-22T06:44:10.611Z,10.43
2022-10-22T06:46:40.078Z,10.03
2022-10-22T06:49:07.891Z,10.90
2022-10-22T06:51:34.340Z,9.90
2022-10-22T06:54:00.857Z,10.90
2022-10-22T06:56:27.798Z,9.63
2022-10-22T06:58:54.876Z,10.63
2022-10-22T07:01:23.587Z,12.07
2022-10-22T07:03:50.794Z,12.07
2022-10-22T07:06:17.317Z,8.70
2022-10-22T07:08:43.884Z,13.48
2022-10-22T07:11:14.416Z,10.07
2022-10-22T07:13:41.019Z,8.90
2022-10-22T07:16:07.712Z,11.33
2022-10-22T07:18:34.252Z,9.07
2022-10-22T07:21:00.930Z,8.77
2022-10-22T07:23:27.786Z,13.97
2022-10-22T07:28:21.065Z,9.70
2022-10-22T07:30:47.564Z,9.93
2022-10-22T07:33:14.658Z,11.47
2022-10-22T07:35:41.230Z,10.33
2022-10-22T07:38:07.721Z,11.77
2022-10-22T07:40:34.346Z,8.43
2022-10-22T07:43:00.893Z,10.13
2022-10-22T07:45:27.380Z,11.47
2022-10-22T07:47:53.875Z,12.60
2022-10-22T07:50:20.349Z,8.53
2022-10-22T07:52:47.276Z,11.23
2022-10-22T07:55:13.744Z,11.40
2022-10-22T07:57:40.593Z,9.97
2022-10-22T08:00:07.478Z,11.40
2022-10-22T08:02:34.002Z,11.87
2022-10-22T08:05:00.547Z,10.13
2022-10-22T08:09:53.392Z,9.98
2022-10-22T08:12:20.408Z,12.97
2022-10-22T08:14:46.922Z,9.50
2022-10-22T08:17:13.396Z,10.63
2022-10-22T08:19:39.845Z,13.02
2022-10-22T08:22:06.312Z,13.32
2022-10-22T08:24:32.828Z,9.82
2022-10-22T08:26:59.364Z,8.90
2022-10-22T08:29:26.815Z,11.50
2022-10-22T08:31:53.593Z,11.00
2022-10-22T08:34:20.107Z,13.88
2022-10-22T08:36:46.706Z,11.60
2022-10-22T08:39:13.414Z,10.40
2022-10-22T08:42:00.104Z,17.10
2022-10-22T08:44:45.493Z,11.02
2022-10-22T08:47:30.592Z,17.77
2022-10-22T08:49:57.244Z,16.02
2022-10-22T08:52:23.679Z,15.63
2022-10-22T08:54:54.330Z,13.40
2022-10-22T08:57:32.972Z,18.30
2022-10-22T09:00:13.700Z,13.73
2022-10-22T09:02:46.341Z,13.63
2022-10-22T09:05:12.777Z,15.38
2022-10-22T09:07:41.159Z,13.52
2022-10-22T09:10:08.736Z,14.63
2022-10-22T09:12:35.204Z,14.18
2022-10-22T09:15:01.652Z,13.27
2022-10-22T09:17:33.986Z,12.48
2022-10-22T09:20:15.948Z,16.77
2022-10-22T09:22:44.901Z,16.25
2022-10-22T09:25:14.838Z,16.40
2022-10-22T09:27:41.435Z,13.05
2022-10-22T09:30:11.971Z,14.40
2022-10-22T09:32:38.770Z,16.23
2022-10-22T09:35:05.577Z,14.68
2022-10-22T09:37:32.048Z,12.75
2022-10-22T09:39:59.152Z,14.68
2022-10-22T09:42:25.588Z,15.68
2022-10-22T09:44:55.859Z,12.75
2022-10-22T09:47:42.866Z,12.85
2022-10-22T09:50:27.466Z,14.50
2022-10-22T09:53:12.064Z,14.38
2022-10-22T09:55:38.826Z,14.45
2022-10-22T09:58:05.278Z,14.65
2022-10-22T10:00:31.754Z,12.02
2022-10-22T10:02:58.661Z,14.57
2022-10-22T10:05:28.185Z,18.50
2022-10-22T10:07:54.848Z,14.73
2022-10-22T10:10:54.373Z,16.13
2022-10-22T10:13:24.314Z,13.20
2022-10-22T10:16:02.643Z,14.10
2022-10-22T10:18:48.117Z,16.13
2022-10-22T10:21:17.958Z,14.75
2022-10-22T10:23:53.994Z,16.30
2022-10-22T10:26:40.746Z,16.48
2022-10-22T10:29:12.671Z,13.65
2022-10-22T10:31:49.750Z,14.85
2022-10-22T10:34:19.395Z,12.00
2022-10-22T10:36:54.668Z,11.85
2022-10-22T10:39:24.457Z,11.48
2022-10-22T10:41:50.897Z,12.35
2022-10-22T10:44:29.593Z,10.43
2022-10-22T10:47:15.009Z,12.55
2022-10-22T10:49:41.682Z,10.55
2022-10-22T10:52:22.273Z,16.55
2022-10-22T10:55:01.495Z,12.00
2022-10-22T10:57:37.362Z,12.50
2022-10-22T11:00:09.555Z,16.40
2022-10-22T11:02:42.020Z,16.05
2022-10-22T11:05:14.455Z,19.02
2022-10-22T11:07:42.839Z,20.33
2022-10-22T11:10:15.390Z,18.77
2022-10-22T11:12:42.849Z,15.60
2022-10-22T11:15:30.257Z,19.73
2022-10-22T11:17:59.554Z,18.00
2022-10-22T11:20:28.580Z,19.15
2022-10-22T11:23:18.723Z,22.88
2022-10-22T11:25:46.658Z,19.13
2022-10-22T11:28:32.199Z,24.58
2022-10-22T11:31:03.152Z,22.33
2022-10-22T11:33:33.973Z,20.48
2022-10-22T11:36:00.410Z,22.95
2022-10-22T11:38:26.959Z,24.58
2022-10-22T11:40:56.231Z,20.35
2022-10-22T11:43:49.848Z,20.70
2022-10-22T11:46:16.281Z,21.10
2022-10-22T11:48:42.875Z,22.00
2022-10-22T11:51:28.270Z,20.77
2022-10-22T11:53:57.873Z,19.55
2022-10-22T11:56:25.237Z,19.48
2022-10-22T11:58:54.014Z,17.92
2022-10-22T12:01:25.646Z,17.92
2022-10-22T12:03:52.122Z,18.33
2022-10-22T12:06:22.763Z,18.00
2022-10-22T12:08:49.440Z,19.85
2022-10-22T12:11:16.293Z,17.90
2022-10-22T12:14:01.375Z,19.33
2022-10-22T12:16:37.920Z,21.52
2022-10-22T12:19:16.274Z,17.90
2022-10-22T12:21:43.548Z,18.05
2022-10-22T12:24:13.622Z,19.60
2022-10-22T12:26:40.194Z,20.10
2022-10-22T12:29:10.025Z,15.65
2022-10-22T12:31:37.067Z,15.93
2022-10-22T12:34:03.576Z,16.23
2022-10-22T12:36:30.544Z,19.20
2022-10-22T12:38:59.680Z,17.40
2022-10-22T12:41:32.956Z,16.38
2022-10-22T12:44:02.921Z,15.65
2022-10-22T12:46:30.049Z,14.50
2022-10-22T12:48:58.540Z,14.43
2022-10-22T12:51:25.071Z,17.48
2022-10-22T12:53:55.410Z,18.25
2022-10-22T12:56:25.817Z,18.98
2022-10-22T12:59:15.619Z,18.92
2022-10-22T13:01:42.183Z,17.08
2022-10-22T13:04:17.687Z,20.65
2022-10-22T13:06:44.768Z,21.27
2022-10-22T13:09:17.197Z,17.90
2022-10-22T13:11:51.041Z,19.27
2022-10-22T13:14:22.037Z,21.17
2022-10-22T13:17:07.359Z,19.50
2022-10-22T13:19:36.800Z,20.30
2022-10-22T13:22:03.241Z,23.33
2022-10-22T13:24:31.126Z,24.88
2022-10-22T13:26:57.552Z,17.77
2022-10-22T13:29:24.061Z,24.17
2022-10-22T13:31:51.425Z,23.05
2022-10-22T13:34:19.453Z,21.92
2022-10-22T13:36:46.089Z,20.10
2022-10-22T13:39:22.723Z,19.42
2022-10-22T13:41:50.788Z,21.27
2022-10-22T13:44:17.814Z,22.75
2022-10-22T13:46:44.332Z,21.98
2022-10-22T13:49:12.759Z,22.58
2022-10-22T13:51:39.192Z,26.58
2022-10-22T13:54:07.070Z,19.17
2022-10-22T13:56:33.494Z,20.10
2022-10-22T13:58:59.944Z,18.05
2022-10-22T14:01:26.870Z,19.23
2022-10-22T14:03:54.205Z,20.98
2022-10-22T14:06:21.126Z,17.55
2022-10-22T14:08:48.688Z,18.98
2022-10-22T14:11:15.224Z,18.38
2022-10-22T14:13:41.724Z,19.98
2022-10-22T14:16:08.492Z,25.88
2022-10-22T14:18:34.974Z,22.70
2022-10-22T14:21:05.083Z,21.10
2022-10-22T14:23:31.708Z,23.25
2022-10-22T14:25:58.384Z,19.00
2022-10-22T14:28:25.084Z,17.80
2022-10-22T14:30:51.735Z,20.65
2022-10-22T14:33:28.893Z,19.30
2022-10-22T14:35:58.874Z,24.92
2022-10-22T14:38:25.447Z,22.45
2022-10-22T14:40:51.944Z,20.88
2022-10-22T14:43:22.688Z,22.20
2022-10-22T14:45:49.185Z,22.98
2022-10-22T14:48:16.271Z,21.65
2022-10-22T14:50:43.400Z,26.92
2022-10-22T14:53:09.980Z,20.80
2022-10-22T14:55:36.423Z,25.60
2022-10-22T14:58:02.954Z,24.02
2022-10-22T15:00:29.545Z,22.55
2022-10-22T15:02:56.101Z,24.58
2022-10-22T15:05:22.708Z,24.65
2022-10-22T15:07:49.187Z,21.52
2022-10-22T15:10:15.606Z,22.38
2022-10-22T15:12:42.198Z,23.58
2022-10-22T15:15:08.817Z,26.98
2022-10-22T15:17:35.349Z,27.20
2022-10-22T15:20:04.190Z,30.90
2022-10-22T15:22:31.793Z,27.70
2022-10-22T15:24:58.516Z,27.90
2022-10-22T15:27:25.386Z,27.70
2022-10-22T15:29:51.975Z,24.52
2022-10-22T15:32:18.426Z,30.85
2022-10-22T15:34:44.894Z,24.02
2022-10-22T15:37:12.272Z,27.30
2022-10-22T15:39:42.198Z,27.63
2022-10-22T15:42:09.337Z,24.05
2022-10-22T15:44:35.962Z,29.90
2022-10-22T15:47:07.300Z,28.25
2022-10-22T15:49:34.250Z,23.92
2022-10-22T15:52:00.708Z,27.23
2022-10-22T15:54:28.689Z,28.02
2022-10-22T15:56:55.682Z,28.85
2022-10-22T15:59:22.123Z,29.20
2022-10-22T16:01:48.560Z,27.40
2022-10-22T16:04:15.127Z,29.52
2022-10-22T16:06:46.195Z,31.98
2022-10-22T16:09:13.641Z,32.50
2022-10-22T16:11:40.361Z,27.38
2022-10-22T16:14:06.901Z,28.42
2022-10-22T16:16:33.947Z,28.90
2022-10-22T16:19:00.465Z,31.75
2022-10-22T16:21:27.154Z,27.52
2022-10-22T16:23:53.626Z,33.40
2022-10-22T16:26:20.114Z,31.08
2022-10-22T16:28:47.065Z,31.00
2022-10-22T16:31:14.097Z,28.50
2022-10-22T16:33:46.421Z,38.85
2022-10-22T16:36:18.082Z,31.67
2022-10-22T16:38:44.922Z,31.85
2022-10-22T16:41:11.815Z,40.63
2022-10-22T16:43:38.432Z,30.05
2022-10-22T16:46:06.034Z,31.95
2022-10-22T16:48:33.017Z,35.05
2022-10-22T16:50:59.711Z,32.25
2022-10-22T16:53:26.147Z,33.60
2022-10-22T16:55:52.620Z,35.38
2022-10-22T16:58:19.050Z,36.65
2022-10-22T17:00:45.657Z,39.63
2022-10-22T17:03:12.388Z,33.53
2022-10-22T17:05:38.857Z,37.50
2022-10-22T17:08:05.276Z,33.08
2022-10-22T17:10:31.729Z,30.50
2022-10-22T17:12:58.234Z,34.47
2022-10-22T17:15:24.682Z,38.22
2022-10-22T17:17:53.807Z,37.72
2022-10-22T17:20:20.307Z,40.85
2022-10-22T17:22:46.787Z,39.20
2022-10-22T17:25:13.315Z,37.38
2022-10-22T17:27:40.149Z,35.88
2022-10-22T17:30:07.184Z,33.13
2022-10-22T17:32:38.061Z,35.45
2022-10-22T17:35:05.143Z,37.00
2022-10-22T17:37:31.702Z,33.70
2022-10-22T17:39:58.255Z,35.70
2022-10-22T17:42:24.779Z,34.67
2022-10-22T17:44:51.183Z,30.33
2022-10-22T17:47:17.615Z,30.90
2022-10-22T17:49:44.151Z,32.25
2022-10-22T17:52:11.505Z,33.28
2022-10-22T17:54:38.010Z,36.85
2022-10-22T17:57:04.567Z,40.83
2022-10-22T17:59:30.992Z,34.50
2022-10-22T18:02:00.298Z,36.70
2022-10-22T18:04:26.843Z,38.63
2022-10-22T18:06:53.307Z,32.80
2022-10-22T18:09:19.765Z,32.25
2022-10-22T18:11:46.772Z,33.05
2022-10-22T18:14:13.189Z,32.53
2022-10-22T18:16:39.762Z,35.13
2022-10-22T18:19:06.226Z,32.03
2022-10-22T18:21:32.695Z,33.97
2022-10-22T18:23:59.611Z,35.00
2022-10-22T18:26:27.042Z,32.20
2022-10-22T18:28:53.863Z,32.90
2022-10-22T18:31:21.054Z,32.70
2022-10-22T18:33:48.318Z,35.00
2022-10-22T18:36:15.895Z,32.63
2022-10-22T18:38:42.367Z,34.38
2022-10-22T18:41:09.249Z,37.17
2022-10-22T18:43:36.325Z,34.40
2022-10-22T18:46:02.757Z,29.15
2022-10-22T18:48:29.245Z,36.90
2022-10-22T18:50:59.772Z,31.58
2022-10-22T18:53:26.347Z,32.53
2022-10-22T18:55:52.800Z,31.85
2022-10-22T18:58:19.253Z,29.33
2022-10-22T19:00:45.689Z,34.40
2022-10-22T19:03:12.885Z,34.38
2022-10-22T19:05:46.366Z,33.77
2022-10-22T19:08:12.802Z,33.00
2022-10-22T19:10:39.280Z,35.67
2022-10-22T19:13:05.750Z,36.33
2022-10-22T19:15:32.303Z,36.33
2022-10-22T19:17:58.758Z,36.80
2022-10-22T19:20:25.261Z,37.40
2022-10-22T19:22:53.409Z,33.10
2022-10-22T19:25:19.961Z,40.60
2022-10-22T19:27:46.519Z,38.42
2022-10-22T19:30:13.187Z,34.88
2022-10-22T19:32:39.590Z,42.67
2022-10-22T19:35:06.151Z,40.72
2022-10-22T19:37:33.275Z,37.58
2022-10-22T19:39:59.727Z,39.78
2022-10-22T19:42:26.395Z,39.88
2022-10-22T19:44:52.878Z,39.75
2022-10-22T19:47:19.369Z,36.50
2022-10-22T19:49:45.851Z,36.60
2022-10-22T19:52:12.341Z,40.47
2022-10-22T19:54:40.924Z,38.17
2022-10-22T19:57:07.939Z,36.33
2022-10-22T19:59:34.589Z,36.85
2022-10-22T20:02:01.083Z,40.03
2022-10-22T20:04:28.170Z,40.20
2022-10-22T20:06:55.077Z,42.75
2022-10-22T20:09:21.723Z,46.13
2022-10-22T20:11:48.300Z,40.33
2022-10-22T20:14:14.764Z,39.53
2022-10-22T20:16:41.341Z,39.63
2022-10-22T20:19:07.824Z,40.55
2022-10-22T20:21:34.342Z,38.85
2022-10-22T20:24:00.827Z,38.90
2022-10-22T20:26:28.363Z,38.13
2022-10-22T20:28:55.505Z,40.33
2022-10-22T20:31:22.431Z,40.60
2022-10-22T20:33:48.969Z,39.45
2022-10-22T20:36:19.533Z,41.15
2022-10-22T20:38:48.219Z,36.58
2022-10-22T20:41:19.287Z,37.92
2022-10-22T20:43:46.148Z,36.08
2022-10-22T20:46:23.108Z,36.95
2022-10-22T20:48:53.296Z,39.25
2022-10-22T20:51:19.952Z,37.08
2022-10-22T20:53:46.638Z,33.00
2022-10-22T20:56:13.181Z,34.95
2022-10-22T20:58:39.711Z,30.23
2022-10-22T21:01:10.639Z,33.50
2022-10-22T21:03:37.511Z,33.20
2022-10-22T21:06:04.270Z,29.90
2022-10-22T21:08:30.857Z,32.60
2022-10-22T21:10:57.330Z,33.42
2022-10-22T21:13:23.831Z,33.88
2022-10-22T21:15:50.243Z,35.33
2022-10-22T21:18:16.722Z,33.15
2022-10-22T21:20:43.203Z,33.45
2022-10-22T21:23:09.689Z,30.08
2022-10-22T21:25:39.504Z,40.35
2022-10-22T21:28:08.454Z,33.25
2022-10-22T21:30:34.924Z,37.13
2022-10-22T21:33:01.447Z,30.30
2022-10-22T21:35:28.544Z,36.13
2022-10-22T21:37:54.987Z,35.22
2022-10-22T21:40:21.967Z,40.08
2022-10-22T21:42:49.633Z,37.03
2022-10-22T21:45:18.720Z,36.55
2022-10-22T21:47:47.861Z,35.90
2022-10-22T21:50:14.394Z,31.13
2022-10-22T21:52:40.839Z,35.95
2022-10-22T21:55:07.471Z,35.20
2022-10-22T21:57:33.905Z,34.05
2022-10-22T22:00:00.331Z,33.78
2022-10-22T22:02:28.822Z,37.42
2022-10-22T22:04:55.375Z,36.55
2022-10-22T22:07:22.050Z,36.53
2022-10-22T22:09:51.686Z,32.55
2022-10-22T22:12:18.157Z,32.05
2022-10-22T22:14:44.631Z,33.15
2022-10-22T22:17:11.187Z,33.03
2022-10-22T22:19:40.763Z,31.83
2022-10-22T22:22:07.208Z,32.92
2022-10-22T22:24:33.657Z,29.65
2022-10-22T22:27:00.404Z,32.58
2022-10-22T22:29:26.833Z,29.92
2022-10-22T22:31:53.293Z,35.55
2022-10-22T22:34:19.710Z,36.58
2022-10-22T22:36:46.571Z,36.42
2022-10-22T22:39:13.895Z,38.05
2022-10-22T22:41:40.831Z,37.83
2022-10-22T22:44:07.272Z,41.25
2022-10-22T22:46:33.719Z,41.00
2022-10-22T22:49:00.328Z,43.38
2022-10-22T22:51:26.738Z,43.33
2022-10-22T22:53:53.273Z,48.80
2022-10-22T22:56:20.825Z,42.30
2022-10-22T22:58:47.504Z,50.85
2022-10-22T23:01:13.969Z,47.87
2022-10-22T23:03:40.469Z,49.60
2022-10-22T23:06:07.124Z,45.65
2022-10-22T23:08:33.749Z,49.30
2022-10-22T23:11:07.517Z,44.53
2022-10-22T23:13:34.173Z,46.70
2022-10-22T23:16:00.575Z,45.47
2022-10-22T23:18:27.044Z,46.25
2022-10-22T23:20:53.582Z,50.83
2022-10-22T23:23:20.086Z,48.35
2022-10-22T23:25:46.644Z,51.55
2022-10-22T23:28:13.169Z,51.50
2022-10-22T23:30:43.731Z,48.85
2022-10-22T23:33:10.344Z,48.45
2022-10-22T23:35:39.133Z,46.95
2022-10-22T23:38:05.791Z,46.38
2022-10-22T23:40:32.193Z,46.65
2022-10-22T23:42:58.648Z,46.58
2022-10-22T23:45:25.076Z,45.55
2022-10-22T23:47:51.485Z,41.92
2022-10-22T23:50:17.915Z,41.42
2022-10-22T23:52:44.744Z,39.47
2022-10-22T23:55:11.341Z,40.47
2022-10-22T23:57:37.761Z,39.40
